Time;durP1;ratioP1;P1;durP2;ratioP2;P2;SDS_P1;SDS_P2;PMS_P1;PMS_P2;Temp;Humidity;BMP_temperature;BMP_pressure;BME280_temperature;BME280_humidity;BME280_pressure;Samples;Min_cycle;Max_cycle;Signal;HPM_P1;HPM_P2
2022/07/17 00:02:14;;;;;;;2.85;1.82;;;;;;;12.76;66.36;101021.41;2876802;81;21000;-62
2022/07/17 00:06:15;;;;;;;4.60;1.85;;;;;;;12.71;66.43;101023.14;2858957;82;21027;-61
2022/07/17 00:10:29;;;;;;;5.20;2.10;;;;;;;12.65;66.51;101024.47;2844083;82;21023;-62
2022/07/17 00:14:30;;;;;;;3.95;1.62;;;;;;;12.58;67.32;101029.94;2840588;84;20952;-61
2022/07/17 00:18:32;;;;;;;2.22;1.30;;;;;;;12.55;68.15;101035.48;2787963;84;21059;-62
2022/07/17 00:22:58;;;;;;;2.37;1.57;;;;;;;12.52;68.50;101037.94;2796368;85;20929;-69
2022/07/17 00:26:59;;;;;;;5.22;1.92;;;;;;;12.57;68.53;101044.22;2793326;85;20964;-64
2022/07/17 00:31:00;;;;;;;3.50;1.67;;;;;;;12.60;68.76;101047.14;2795500;84;20956;-62
2022/07/17 00:35:03;;;;;;;7.85;2.42;;;;;;;12.60;68.99;101048.48;2840324;84;21042;-62
2022/07/17 00:39:08;;;;;;;3.98;2.02;;;;;;;12.57;70.22;101047.75;2840473;84;21008;-71
2022/07/17 00:43:37;;;;;;;2.27;2.03;;;;;;;12.56;70.45;101042.05;2840780;82;21003;-63
2022/07/17 00:52:19;;;;;;;7.85;2.50;;;;;;;12.54;69.84;101043.13;2840562;84;20972;-66
2022/07/17 01:01:50;;;;;;;7.15;2.75;;;;;;;12.62;69.50;101048.73;2870162;82;21019;-64
2022/07/17 01:05:52;;;;;;;4.17;2.10;;;;;;;12.55;69.74;101047.50;2795363;83;21012;-69
2022/07/17 01:09:54;;;;;;;5.17;1.75;;;;;;;12.50;70.27;101053.69;2838837;83;21031;-62
2022/07/17 01:13:56;;;;;;;4.75;1.50;;;;;;;12.42;71.45;101053.81;2803483;81;20956;-63
2022/07/17 01:17:59;;;;;;;5.87;1.85;;;;;;;12.35;70.97;101056.56;2819882;84;21043;-62
2022/07/17 01:22:27;;;;;;;4.50;2.15;;;;;;;12.32;71.22;101059.98;2840246;84;20983;-62
2022/07/17 01:26:28;;;;;;;2.05;1.32;;;;;;;12.27;71.50;101064.33;2848214;82;20996;-62
2022/07/17 01:30:30;;;;;;;1.40;1.07;;;;;;;12.23;72.16;101060.20;2843082;83;21023;-62
2022/07/17 01:34:31;;;;;;;3.67;1.30;;;;;;;12.17;72.66;101066.84;2839857;83;20956;-62
2022/07/17 01:38:45;;;;;;;3.65;1.60;;;;;;;12.10;73.31;101073.12;2840328;82;20984;-61
2022/07/17 01:42:49;;;;;;;2.60;1.45;;;;;;;12.02;73.82;101074.67;2840177;84;20984;-63
2022/07/17 01:46:50;;;;;;;3.47;1.77;;;;;;;11.85;74.80;101073.63;2840191;84;21054;-61
2022/07/17 01:50:53;;;;;;;5.58;1.60;;;;;;;11.81;75.10;101068.16;2796727;84;21016;-64
2022/07/17 01:55:15;;;;;;;3.45;2.02;;;;;;;11.72;76.24;101070.16;2840245;82;21019;-66
2022/07/17 01:59:17;;;;;;;5.10;1.85;;;;;;;11.73;76.15;101067.03;2840206;84;20976;-62
2022/07/17 02:03:36;;;;;;;2.35;1.80;;;;;;;11.71;76.32;101063.99;2843193;82;21004;-62
2022/07/17 02:07:39;;;;;;;2.20;1.82;;;;;;;11.76;75.58;101068.96;2839262;83;21086;-64
2022/07/17 02:11:40;;;;;;;6.67;1.85;;;;;;;11.84;74.96;101064.39;2855788;82;20957;-64
2022/07/17 02:15:43;;;;;;;7.80;2.35;;;;;;;11.87;74.91;101064.16;2856753;82;20952;-63
2022/07/17 02:19:44;;;;;;;4.35;1.92;;;;;;;11.91;74.64;101070.98;2840211;84;20943;-62
2022/07/17 02:23:57;;;;;;;6.42;1.92;;;;;;;11.75;75.50;101073.92;2841473;83;20992;-64
2022/07/17 02:27:58;;;;;;;3.77;2.10;;;;;;;11.79;75.24;101070.56;2837344;82;20964;-62
2022/07/17 02:32:24;;;;;;;3.30;1.98;;;;;;;11.71;75.70;101074.66;2837661;83;20968;-62
2022/07/17 02:36:25;;;;;;;5.35;2.47;;;;;;;11.68;75.65;101076.19;2839802;84;20936;-64
2022/07/17 02:45:51;;;;;;;5.70;2.60;;;;;;;11.56;76.67;101083.28;2839742;84;21027;-67
2022/07/17 02:50:05;;;;;;;4.37;2.22;;;;;;;11.46;74.93;101090.73;2839944;83;20984;-69
2022/07/17 02:54:26;;;;;;;3.17;1.55;;;;;;;11.36;77.10;101084.75;2819057;83;20972;-65
2022/07/17 02:58:28;;;;;;;4.55;2.45;;;;;;;11.35;77.66;101091.05;2821589;84;20976;-61
2022/07/17 03:02:30;;;;;;;7.00;2.27;;;;;;;11.25;76.86;101089.98;2859386;79;73348;-94
2022/07/17 03:06:31;;;;;;;2.22;2.02;;;;;;;11.17;77.30;101096.36;2883581;82;21530;-93
2022/07/17 03:10:33;;;;;;;3.25;2.30;;;;;;;11.05;78.25;101094.09;2892287;79;21007;-87
2022/07/17 03:14:34;;;;;;;7.33;1.75;;;;;;;11.11;78.42;101086.99;2842836;81;20996;-93
2022/07/17 03:18:36;;;;;;;6.30;2.40;;;;;;;11.26;78.09;101091.69;2867925;81;21023;-93
2022/07/17 03:22:37;;;;;;;3.62;1.57;;;;;;;11.35;77.70;101097.70;2875094;80;21562;-91
2022/07/17 03:26:39;;;;;;;1.90;1.57;;;;;;;11.36;77.64;101106.53;2895128;80;21038;-92
2022/07/17 03:30:41;;;;;;;13.72;1.87;;;;;;;11.42;77.76;101107.44;2890341;80;21039;-90
2022/07/17 03:34:42;;;;;;;4.12;1.80;;;;;;;11.51;77.66;101105.42;2901399;80;21481;-92
2022/07/17 03:38:44;;;;;;;3.83;1.98;;;;;;;11.61;78.24;101108.27;2888751;80;21565;-89
2022/07/17 03:42:46;;;;;;;4.25;1.98;;;;;;;11.63;78.44;101110.33;2872446;81;20948;-95
2022/07/17 03:46:47;;;;;;;9.28;2.40;;;;;;;11.64;78.65;101115.20;2897495;80;20960;-92
2022/07/17 03:50:49;;;;;;;4.87;2.25;;;;;;;11.75;78.75;101116.57;2903403;80;21035;-89
2022/07/17 03:54:53;;;;;;;6.50;2.12;;;;;;;11.84;79.20;101111.91;2906420;80;21042;-89
2022/07/17 03:58:55;;;;;;;9.10;4.20;;;;;;;12.03;78.59;101113.23;2897092;80;20995;-92
2022/07/17 04:02:56;;;;;;;8.83;2.77;;;;;;;12.18;78.64;101122.36;2908173;80;20971;-93
2022/07/17 04:06:58;;;;;;;4.28;2.35;;;;;;;12.40;78.70;101129.13;2915943;80;21045;-94
2022/07/17 04:10:59;;;;;;;3.12;1.77;;;;;;;12.66;78.18;101122.73;2913412;79;20983;-94
2022/07/17 04:15:01;;;;;;;6.80;1.55;;;;;;;12.90;77.17;101119.13;2916952;80;20990;-93
2022/07/17 04:19:03;;;;;;;3.37;1.77;;;;;;;13.25;76.49;101114.13;2897269;79;20993;-92
2022/07/17 04:23:05;;;;;;;5.25;1.77;;;;;;;13.58;75.36;101119.59;2891956;79;21010;-93
2022/07/17 04:27:07;;;;;;;6.42;1.85;;;;;;;14.62;74.71;101118.99;2915636;79;21098;-93
2022/07/17 04:31:09;;;;;;;2.77;1.50;;;;;;;15.83;69.11;101114.63;2906259;80;20975;-93
2022/07/17 04:35:10;;;;;;;5.42;1.10;;;;;;;16.97;66.54;101110.87;2915312;79;20990;-91
2022/07/17 04:39:12;;;;;;;3.33;1.42;;;;;;;17.83;62.35;101111.55;2919976;80;20943;-88
2022/07/17 04:43:13;;;;;;;3.75;2.10;;;;;;;18.58;60.21;101126.48;2911605;80;21753;-92
2022/07/17 04:47:15;;;;;;;3.50;1.70;;;;;;;19.35;58.98;101126.23;2914698;80;21002;-94
2022/07/17 04:51:16;;;;;;;91.17;13.93;;;;;;;19.80;56.30;101126.34;2920875;80;21025;-92
2022/07/17 04:55:17;;;;;;;5.87;2.42;;;;;;;20.23;55.27;101134.84;2910266;79;21037;-94
2022/07/17 04:59:19;;;;;;;3.95;1.87;;;;;;;20.57;54.43;101136.50;2912181;80;20967;-95
2022/07/17 05:03:21;;;;;;;5.72;1.98;;;;;;;20.89;54.20;101146.10;2909742;80;21054;-95
2022/07/17 05:07:23;;;;;;;1.92;1.17;;;;;;;21.09;53.53;101147.39;2813482;81;21047;-94
2022/07/17 05:11:24;;;;;;;9.90;2.50;;;;;;;21.38;53.34;101144.58;2905316;80;21022;-93
2022/07/17 05:15:26;;;;;;;5.28;2.00;;;;;;;21.44;52.25;101140.33;2904248;80;21030;-94
2022/07/17 05:19:27;;;;;;;4.60;1.92;;;;;;;21.32;52.03;101155.26;2903787;79;21124;-90
2022/07/17 05:23:29;;;;;;;6.22;2.20;;;;;;;21.38;52.07;101155.41;2899801;80;20983;-93
2022/07/17 05:27:31;;;;;;;12.55;1.98;;;;;;;21.61;52.38;101149.19;2881165;81;21038;-92
2022/07/17 05:31:32;;;;;;;6.12;2.60;;;;;;;21.69;51.21;101155.11;2900065;80;21011;-89
2022/07/17 05:35:34;;;;;;;6.62;3.12;;;;;;;21.50;52.03;101155.85;2898448;80;21415;-95
2022/07/17 05:39:35;;;;;;;5.22;2.27;;;;;;;21.63;52.11;101170.16;2908071;80;20995;-95
2022/07/17 05:43:37;;;;;;;8.15;2.67;;;;;;;21.93;52.05;101161.38;2901010;80;20999;-91
2022/07/17 05:47:38;;;;;;;2.58;1.65;;;;;;;22.01;51.24;101172.67;2879943;80;21030;-89
2022/07/17 05:51:40;;;;;;;1.55;1.42;;;;;;;22.13;51.26;101175.80;2837720;80;21034;-93
2022/07/17 05:55:42;;;;;;;9.65;2.85;;;;;;;21.87;52.00;101170.23;2897731;80;21014;-95
2022/07/17 05:59:46;;;;;;;7.50;2.12;;;;;;;21.93;51.23;101174.92;2904981;81;20984;-93
2022/07/17 06:03:48;;;;;;;8.85;1.42;;;;;;;22.06;51.35;101177.89;2892101;80;20951;-92
2022/07/17 06:07:50;;;;;;;3.72;1.35;;;;;;;22.33;51.58;101178.34;2907807;80;20987;-92
2022/07/17 06:11:51;;;;;;;6.75;1.85;;;;;;;22.29;50.80;101177.03;2886124;80;20983;-86
2022/07/17 06:15:53;;;;;;;5.47;1.60;;;;;;;21.92;51.63;101186.28;2906866;80;20967;-89
2022/07/17 06:19:55;;;;;;;7.05;1.57;;;;;;;21.85;52.52;101198.00;2908695;80;21427;-94
2022/07/17 06:23:56;;;;;;;2.02;1.22;;;;;;;21.60;53.47;101193.53;2874949;80;21552;-94
2022/07/17 06:27:58;;;;;;;4.22;1.22;;;;;;;21.50;52.98;101202.36;2901891;81;20986;-93
2022/07/17 06:31:59;;;;;;;2.10;1.00;;;;;;;21.41;54.00;101208.31;2889286;80;21018;-91
2022/07/17 06:36:01;;;;;;;3.58;1.60;;;;;;;21.44;54.12;101209.34;2893379;80;20997;-89
2022/07/17 06:40:04;;;;;;;4.42;1.90;;;;;;;21.56;53.77;101215.20;2869958;81;20958;-94
2022/07/17 06:44:06;;;;;;;4.60;1.12;;;;;;;21.39;54.29;101209.86;2892508;81;21011;-87
2022/07/17 06:48:08;;;;;;;5.47;1.60;;;;;;;21.80;53.58;101208.84;2840866;80;21589;-94
2022/07/17 06:52:10;;;;;;;4.08;1.30;;;;;;;21.91;53.53;101211.68;2899394;80;21026;-93
2022/07/17 06:56:12;;;;;;;5.62;1.20;;;;;;;22.10;53.01;101205.44;2883222;80;21077;-86
2022/07/17 07:00:15;;;;;;;4.95;1.32;;;;;;;21.90;52.97;101214.55;2870570;80;20958;-90
2022/07/17 07:04:16;;;;;;;5.87;2.00;;;;;;;21.77;53.20;101208.38;2834402;80;21011;-90
2022/07/17 07:08:18;;;;;;;3.70;1.85;;;;;;;21.87;52.54;101214.92;2886188;80;21417;-95
2022/07/17 07:12:19;;;;;;;2.22;1.17;;;;;;;21.81;53.42;101208.34;2900357;79;21011;-93
2022/07/17 07:16:20;;;;;;;2.35;1.30;;;;;;;21.92;52.75;101212.51;2917593;79;21494;-92
2022/07/17 07:20:23;;;;;;;4.92;1.02;;;;;;;22.05;52.54;101210.06;2881710;79;23690;-94
2022/07/17 07:24:25;;;;;;;8.98;1.17;;;;;;;22.25;52.32;101204.17;2909641;79;21020;-94
2022/07/17 07:28:27;;;;;;;1.82;1.25;;;;;;;22.55;52.76;101206.99;2920267;79;21038;-94
2022/07/17 07:32:28;;;;;;;5.05;1.57;;;;;;;22.30;52.05;101204.46;2912389;79;20971;-93
2022/07/17 07:36:29;;;;;;;4.47;2.00;;;;;;;22.19;52.23;101192.18;2910861;79;20999;-93
2022/07/17 07:40:34;;;;;;;3.92;1.40;;;;;;;22.38;52.63;101192.19;2923742;79;21070;-93
2022/07/17 07:44:35;;;;;;;4.78;1.72;;;;;;;22.34;52.57;101188.69;2870979;79;20986;-96
2022/07/17 07:48:37;;;;;;;4.55;0.98;;;;;;;22.29;52.10;101184.30;2897928;79;20972;-94
2022/07/17 08:01:12;;;;;;;1.95;1.27;;;;;;;21.85;52.30;101198.00;2799271;82;70703;-92
2022/07/17 08:05:13;;;;;;;4.47;1.92;;;;;;;21.66;52.51;101193.37;2775315;83;21011;-94
2022/07/17 08:09:15;;;;;;;1.75;0.80;;;;;;;21.66;52.59;101201.48;2799051;83;20997;-95
2022/07/17 08:13:17;;;;;;;7.67;1.55;;;;;;;21.55;51.99;101195.41;2778579;83;21833;-92
2022/07/17 08:17:19;;;;;;;17.67;4.35;;;;;;;21.88;52.95;101195.77;2805816;82;21079;-94
2022/07/17 08:21:22;;;;;;;5.92;1.75;;;;;;;22.29;51.53;101198.71;2785738;83;20957;-96
2022/07/17 08:25:24;;;;;;;3.08;1.07;;;;;;;22.42;50.57;101193.20;2797454;83;21603;-96
2022/07/17 08:29:25;;;;;;;6.45;1.17;;;;;;;21.87;49.78;101208.14;2779526;83;21010;-92
2022/07/17 08:33:27;;;;;;;1.12;1.00;;;;;;;22.03;50.69;101194.51;2800044;83;21493;-92
2022/07/17 08:37:28;;;;;;;1.42;1.05;;;;;;;21.97;51.14;101216.87;2799241;83;21002;-94
2022/07/17 08:41:30;;;;;;;2.92;1.35;;;;;;;22.29;50.41;101214.12;2803580;81;21005;-92
2022/07/17 08:45:32;;;;;;;3.80;1.50;;;;;;;22.02;50.66;101218.55;2799846;81;21628;-91
2022/07/17 08:49:37;;;;;;;5.85;2.02;;;;;;;21.93;50.15;101217.77;2781342;81;20996;-93
2022/07/17 08:53:39;;;;;;;3.05;1.12;;;;;;;22.19;49.92;101227.91;2783947;83;20989;-94
2022/07/17 08:57:44;;;;;;;2.77;1.32;;;;;;;22.39;49.76;101218.27;2807414;82;20992;-91
2022/07/17 09:01:45;;;;;;;2.67;0.95;;;;;;;22.56;49.17;101223.59;2832487;81;20991;-92
2022/07/17 09:05:48;;;;;;;2.52;1.35;;;;;;;22.14;49.77;101226.25;2759408;84;21017;-93
2022/07/17 09:09:51;;;;;;;7.75;1.20;;;;;;;21.87;50.22;101232.52;2811277;81;20981;-93
2022/07/17 09:13:54;;;;;;;3.90;1.45;;;;;;;21.58;50.90;101232.11;2813310;83;21005;-93
2022/07/17 09:17:57;;;;;;;4.65;1.20;;;;;;;21.83;49.67;101220.70;2811612;83;21555;-96
2022/07/17 09:26:32;;;;;;;8.10;1.67;;;;;;;22.04;50.71;101223.28;2765090;80;69905;-91
2022/07/17 09:30:41;;;;;;;4.33;1.17;;;;;;;22.07;50.13;101225.62;2775728;82;21029;-90
2022/07/17 09:51:37;;;;;;;5.40;1.62;;;;;;;23.02;47.38;101215.05;2851497;82;21067;-90
2022/07/17 09:55:41;;;;;;;4.97;1.40;;;;;;;23.11;47.78;101222.91;2912336;80;20994;-96
2022/07/17 09:59:43;;;;;;;6.30;1.60;;;;;;;23.04;46.90;101216.52;2926609;80;20963;-95
2022/07/17 10:03:48;;;;;;;4.40;1.92;;;;;;;22.85;47.32;101215.20;2892299;80;20983;-93
2022/07/17 10:07:51;;;;;;;2.05;1.45;;;;;;;23.07;47.97;101203.11;2933998;80;21046;-92
2022/07/17 10:11:53;;;;;;;9.48;1.70;;;;;;;23.25;47.90;101209.51;2868788;82;21043;-88
2022/07/17 10:20:06;;;;;;;2.80;1.75;;;;;;;23.27;46.01;101210.72;2809886;81;69779;-94
2022/07/17 10:24:09;;;;;;;3.12;1.00;;;;;;;23.22;46.69;101199.89;2759961;84;21063;-93
2022/07/17 10:28:12;;;;;;;8.10;1.72;;;;;;;23.45;47.08;101212.54;2743563;86;20973;-95
2022/07/17 10:32:18;;;;;;;1.40;1.12;;;;;;;23.60;45.62;101192.67;2740818;85;21036;-96
2022/07/17 10:36:20;;;;;;;4.10;1.00;;;;;;;23.65;46.43;101199.20;2759793;84;21028;-91
2022/07/17 10:40:32;;;;;;;4.45;1.12;;;;;;;23.79;45.85;101209.72;2756841;85;21103;-90
2022/07/17 10:44:34;;;;;;;3.83;1.37;;;;;;;23.59;46.30;101204.57;2731686;85;21044;-93
2022/07/17 11:01:12;;;;;;;3.70;1.52;;;;;;;23.52;45.69;101205.84;2812389;82;21025;-92
2022/07/17 11:05:16;;;;;;;4.05;1.15;;;;;;;23.61;45.13;101180.78;2866068;80;20989;-94
2022/07/17 11:17:38;;;;;;;1.30;0.80;;;;;;;23.52;45.89;101180.88;2909666;80;21019;-94
2022/07/17 11:21:48;;;;;;;3.45;2.15;;;;;;;23.54;45.41;101181.52;2892624;80;20978;-93
2022/07/17 11:26:08;;;;;;;5.50;1.67;;;;;;;23.74;45.49;101176.02;2912953;80;21459;-96
2022/07/17 11:30:13;;;;;;;5.72;1.45;;;;;;;23.76;44.66;101185.63;2907424;80;21054;-93
2022/07/17 11:34:23;;;;;;;11.45;2.52;;;;;;;23.72;44.06;101161.78;2913466;80;20985;-95
2022/07/17 11:46:43;;;;;;;3.72;0.98;;;;;;;24.32;43.90;101173.27;2878744;82;21047;-93
2022/07/17 11:50:55;;;;;;;5.95;1.92;;;;;;;24.52;43.13;101165.79;2844129;81;20964;-91
2022/07/17 11:54:57;;;;;;;3.98;1.00;;;;;;;24.58;44.07;101176.41;2886502;81;20996;-94
2022/07/17 11:58:59;;;;;;;4.53;1.10;;;;;;;24.87;43.31;101169.95;2869328;81;20995;-94
2022/07/17 12:03:05;;;;;;;5.42;0.68;;;;;;;25.16;42.67;101169.90;2879703;81;20995;-95
2022/07/17 12:07:09;;;;;;;1.40;1.00;;;;;;;25.47;42.10;101167.22;2853521;82;20974;-94
2022/07/17 12:11:10;;;;;;;3.30;1.35;;;;;;;25.48;41.53;101165.67;2887426;81;21028;-95
2022/07/17 12:15:12;;;;;;;1.70;1.00;;;;;;;25.37;40.52;101166.24;2881435;81;21339;-93
2022/07/17 12:19:21;;;;;;;4.92;0.90;;;;;;;24.99;41.48;101180.28;2838064;81;21027;-92
2022/07/17 12:23:31;;;;;;;3.15;0.88;;;;;;;24.52;41.99;101186.19;2802441;83;21491;-90
2022/07/17 12:27:35;;;;;;;3.22;0.75;;;;;;;24.22;42.50;101182.28;2799252;84;21024;-95
2022/07/17 12:31:37;;;;;;;1.05;0.70;;;;;;;24.10;43.16;101167.02;2763739;83;21480;-89
2022/07/17 12:35:40;;;;;;;6.40;0.90;;;;;;;24.28;42.79;101171.98;2793496;83;21029;-88
2022/07/17 12:39:44;;;;;;;15.03;2.75;;;;;;;24.23;42.74;101163.58;2808256;83;21391;-92
2022/07/17 12:43:46;;;;;;;3.20;0.80;;;;;;;24.00;43.23;101178.18;2781320;84;21025;-91
2022/07/17 12:47:47;;;;;;;2.25;0.90;;;;;;;24.06;43.22;101169.27;2875886;81;21540;-89
2022/07/17 12:51:49;;;;;;;4.03;1.42;;;;;;;23.93;42.34;101169.95;2854923;81;20956;-89
2022/07/17 12:55:50;;;;;;;3.67;0.90;;;;;;;24.21;42.38;101172.45;2826579;82;21032;-89
2022/07/17 12:59:52;;;;;;;2.37;0.60;;;;;;;24.24;42.33;101162.54;2842743;82;20994;-93
2022/07/17 13:03:53;;;;;;;9.15;2.30;;;;;;;24.25;42.22;101171.84;2841057;81;21002;-86
2022/07/17 13:07:55;;;;;;;0.82;0.40;;;;;;;24.47;42.61;101165.55;2814875;82;21035;-90
2022/07/17 13:11:57;;;;;;;5.33;1.75;;;;;;;24.64;42.06;101159.28;2706411;84;21036;-91
2022/07/17 13:15:58;;;;;;;1.90;0.80;;;;;;;24.62;42.54;101162.22;2847549;82;20967;-90
2022/07/17 13:20:00;;;;;;;40.95;11.25;;;;;;;25.02;42.11;101154.84;2830855;81;21053;-93
2022/07/17 13:28:06;;;;;;;4.10;2.10;;;;;;;24.76;42.03;101162.33;2809776;82;21050;-90
2022/07/17 13:32:08;;;;;;;13.05;1.72;;;;;;;24.70;43.40;101154.94;2798367;82;21022;-91
2022/07/17 13:36:09;;;;;;;2.15;0.88;;;;;;;24.85;43.97;101152.98;2782837;83;20982;-89
2022/07/17 13:40:11;;;;;;;2.35;0.85;;;;;;;24.98;43.77;101139.15;2709945;85;21081;-88
2022/07/17 13:44:13;;;;;;;2.75;0.93;;;;;;;24.83;42.81;101155.06;2720503;83;21591;-86
2022/07/17 13:48:15;;;;;;;1.45;0.98;;;;;;;24.64;43.83;101149.27;2768627;85;21061;-88
2022/07/17 13:52:16;;;;;;;3.58;1.47;;;;;;;24.48;44.28;101143.61;2744968;83;21033;-86
2022/07/17 13:56:18;;;;;;;3.58;1.12;;;;;;;24.48;44.08;101129.16;2739772;85;21506;-88
2022/07/17 14:00:20;;;;;;;7.50;2.45;;;;;;;24.19;44.16;101141.38;2714018;83;21009;-86
2022/07/17 14:04:21;;;;;;;3.12;1.02;;;;;;;24.16;44.68;101143.63;2743419;84;21058;-88
2022/07/17 14:08:23;;;;;;;2.87;0.90;;;;;;;24.21;44.91;101142.02;2740933;86;21027;-88
2022/07/17 14:12:25;;;;;;;3.77;1.72;;;;;;;24.51;44.48;101141.00;2734739;85;21015;-88
2022/07/17 14:16:26;;;;;;;2.62;0.90;;;;;;;25.03;44.44;101129.31;2742139;85;21142;-91
2022/07/17 14:20:28;;;;;;;3.65;1.40;;;;;;;25.38;42.83;101129.80;2754158;85;22220;-87
2022/07/17 14:24:30;;;;;;;3.98;1.20;;;;;;;25.66;42.31;101131.58;2761988;85;21031;-87
2022/07/17 14:28:34;;;;;;;4.27;1.27;;;;;;;25.64;41.46;101131.77;2706352;85;21027;-90
2022/07/17 14:32:36;;;;;;;2.72;0.80;;;;;;;25.74;40.60;101130.01;2687349;86;21089;-90
2022/07/17 14:36:38;;;;;;;4.95;1.22;;;;;;;25.83;40.80;101124.38;2717931;85;21434;-92
2022/07/17 14:40:39;;;;;;;2.65;1.10;;;;;;;25.59;41.51;101111.66;2695671;86;21003;-88
2022/07/17 14:44:41;;;;;;;8.33;1.47;;;;;;;25.61;41.47;101123.19;2751518;85;21027;-93
2022/07/17 14:48:43;;;;;;;7.35;0.98;;;;;;;25.58;41.03;101120.88;2691905;86;21052;-91
2022/07/17 14:52:44;;;;;;;4.00;2.05;;;;;;;25.43;41.30;101116.91;2738924;85;21009;-94
2022/07/17 14:56:46;;;;;;;6.45;1.77;;;;;;;25.69;42.97;101111.27;2754182;85;21010;-91
2022/07/17 15:00:47;;;;;;;8.68;1.80;;;;;;;25.92;41.54;101106.77;2720680;86;20996;-91
2022/07/17 15:04:49;;;;;;;2.00;1.07;;;;;;;25.72;41.40;101110.31;2755156;85;21031;-92
2022/07/17 15:08:50;;;;;;;1.67;1.10;;;;;;;25.60;41.89;101114.70;2672307;86;21050;-91
2022/07/17 15:12:53;;;;;;;16.25;3.12;;;;;;;25.30;42.14;101111.75;2715328;85;21037;-91
2022/07/17 15:16:55;;;;;;;19.25;4.08;;;;;;;25.20;42.81;101106.69;2694239;86;21055;-94
2022/07/17 15:20:56;;;;;;;2.12;0.85;;;;;;;25.04;43.16;101113.84;2742331;85;21160;-91
2022/07/17 15:25:00;;;;;;;3.00;1.57;;;;;;;24.91;43.36;101101.83;2747082;84;21136;-89
2022/07/17 15:29:02;;;;;;;15.55;2.60;;;;;;;25.08;43.64;101094.70;2810680;84;21021;-87
2022/07/17 15:33:04;;;;;;;1.85;1.00;;;;;;;24.86;43.69;101090.72;2839331;82;20950;-87
2022/07/17 15:37:05;;;;;;;10.70;1.72;;;;;;;24.94;43.90;101095.98;2855659;82;20971;-87
2022/07/17 15:41:07;;;;;;;30.40;4.85;;;;;;;25.06;42.71;101092.70;2765617;82;21540;-89
2022/07/17 15:45:09;;;;;;;1.75;1.17;;;;;;;25.04;42.83;101092.06;2852212;82;21031;-89
2022/07/17 15:49:11;;;;;;;4.72;1.52;;;;;;;24.93;42.84;101087.50;2849803;82;21014;-89
2022/07/17 15:53:12;;;;;;;4.92;0.90;;;;;;;24.97;43.71;101092.03;2852201;82;21038;-89
2022/07/17 15:57:14;;;;;;;28.75;4.25;;;;;;;25.02;42.70;101075.11;2849361;82;20998;-89
2022/07/17 16:01:16;;;;;;;5.20;1.82;;;;;;;25.04;42.81;101075.73;2855285;81;21006;-90
2022/07/17 16:05:17;;;;;;;3.15;1.00;;;;;;;25.24;42.71;101079.88;2855902;82;21000;-93
2022/07/17 16:09:19;;;;;;;2.65;1.22;;;;;;;25.44;42.23;101072.29;2757830;83;21053;-87
2022/07/17 16:13:20;;;;;;;1.52;0.80;;;;;;;25.45;42.75;101069.38;2757865;84;21045;-87
2022/07/17 16:17:22;;;;;;;5.15;1.65;;;;;;;25.47;43.03;101067.31;2763040;85;21003;-90
2022/07/17 16:21:24;;;;;;;11.25;1.62;;;;;;;25.36;42.71;101068.72;2755277;86;21043;-87
2022/07/17 16:25:26;;;;;;;9.05;2.52;;;;;;;25.26;42.50;101066.08;2783021;79;21125;-88
2022/07/17 16:29:27;;;;;;;6.22;1.77;;;;;;;24.99;41.83;101064.09;2802690;83;21023;-92
2022/07/17 16:33:29;;;;;;;2.40;1.50;;;;;;;24.88;42.12;101069.59;2782184;83;21034;-91
2022/07/17 16:37:30;;;;;;;4.83;1.55;;;;;;;24.88;42.55;101061.43;2805992;81;21034;-91
2022/07/17 16:41:32;;;;;;;2.58;0.78;;;;;;;24.86;42.69;101061.30;2817064;83;21944;-89
2022/07/17 16:45:33;;;;;;;4.80;1.40;;;;;;;24.81;41.80;101052.41;2821961;82;21039;-91
2022/07/17 16:49:35;;;;;;;1.35;0.78;;;;;;;24.69;41.08;101057.55;2821773;83;20999;-92
2022/07/17 16:53:36;;;;;;;3.80;1.60;;;;;;;24.53;41.14;101057.34;2816094;83;21007;-89
2022/07/17 16:57:38;;;;;;;3.92;1.42;;;;;;;24.39;42.37;101060.50;2808229;83;21057;-93
2022/07/17 17:01:39;;;;;;;0.82;0.60;;;;;;;24.25;42.23;101052.77;2818796;83;21010;-92
2022/07/17 17:05:41;;;;;;;3.17;1.00;;;;;;;24.03;41.78;101052.83;2811379;81;20982;-90
2022/07/17 17:09:45;;;;;;;8.50;1.55;;;;;;;23.92;42.04;101053.31;2807973;83;20958;-91
2022/07/17 17:13:46;;;;;;;4.05;1.50;;;;;;;23.91;41.96;101052.48;2808115;83;21014;-93
2022/07/17 17:17:47;;;;;;;1.90;1.05;;;;;;;23.91;42.52;101052.99;2811020;83;21009;-89
2022/07/17 17:21:49;;;;;;;1.22;0.80;;;;;;;23.85;41.96;101046.99;2815598;83;21013;-92
2022/07/17 17:25:50;;;;;;;3.02;1.57;;;;;;;23.72;42.19;101043.11;2799368;83;21038;-93
2022/07/17 17:29:52;;;;;;;4.28;1.37;;;;;;;23.76;42.35;101038.14;2770589;82;21024;-90
2022/07/17 17:33:53;;;;;;;2.15;1.20;;;;;;;23.71;42.34;101043.33;2833771;81;21064;-93
2022/07/17 17:37:55;;;;;;;1.40;0.82;;;;;;;23.66;42.30;101038.47;2771243;83;20985;-90
2022/07/17 17:41:56;;;;;;;1.98;1.02;;;;;;;23.53;41.97;101039.19;2807890;82;21082;-90
2022/07/17 17:45:58;;;;;;;7.42;1.20;;;;;;;23.51;42.43;101046.16;2840532;82;21021;-90
2022/07/17 17:49:59;;;;;;;3.95;0.85;;;;;;;23.40;41.92;101048.04;2808929;82;21021;-90
2022/07/17 17:54:01;;;;;;;5.37;1.50;;;;;;;23.39;42.05;101045.00;2812861;82;21060;-93
2022/07/17 17:58:02;;;;;;;6.03;1.82;;;;;;;23.37;42.18;101045.18;2816041;83;21053;-89
2022/07/17 18:02:05;;;;;;;9.50;1.50;;;;;;;23.31;42.40;101050.53;2801970;83;21497;-93
2022/07/17 18:06:07;;;;;;;7.53;0.80;;;;;;;23.22;42.33;101046.56;2821642;83;21056;-90
2022/07/17 18:10:09;;;;;;;2.25;0.78;;;;;;;23.16;42.61;101057.33;2795728;84;21013;-89
2022/07/17 18:14:10;;;;;;;3.33;1.27;;;;;;;23.07;42.56;101062.03;2829876;82;20955;-91
2022/07/17 18:18:12;;;;;;;2.55;0.80;;;;;;;22.97;42.47;101066.39;2847964;81;20986;-87
2022/07/17 18:22:13;;;;;;;6.55;2.10;;;;;;;22.86;42.72;101064.14;2837888;81;21020;-86
2022/07/17 18:26:15;;;;;;;10.53;0.90;;;;;;;22.77;42.93;101060.19;2818228;82;21036;-87
2022/07/17 18:30:17;;;;;;;13.28;3.05;;;;;;;22.71;43.25;101058.73;2811387;81;21516;-88
2022/07/17 18:34:20;;;;;;;46.88;7.83;;;;;;;22.58;44.27;101067.00;2824772;81;21013;-90
2022/07/17 18:38:21;;;;;;;51.60;9.60;;;;;;;22.44;44.38;101062.41;2771363;82;21039;-88
2022/07/17 18:42:23;;;;;;;16.05;4.78;;;;;;;22.31;45.04;101065.76;2769844;83;21017;-92
2022/07/17 18:46:24;;;;;;;5.85;1.85;;;;;;;;;;2689857;83;21062;-91
2022/07/17 18:50:27;;;;;;;13.60;3.47;;;;;;;21.99;45.44;101072.62;2761179;82;69775;-89
2022/07/17 18:54:28;;;;;;;13.58;2.33;;;;;;;21.81;45.75;101069.74;2864917;81;20974;-89
2022/07/17 18:58:30;;;;;;;57.90;10.68;;;;;;;21.64;45.93;101071.68;2862889;81;21050;-94
2022/07/17 19:02:32;;;;;;;15.98;3.98;;;;;;;21.44;46.60;101070.46;2875245;81;21023;-90
2022/07/17 19:07:10;;;;;;;;;;;;;;;;;;;;;
2022/07/17 19:10:59;;;;;;;13.85;2.72;;;;;;;21.05;47.26;101073.03;2875783;81;21003;-92
2022/07/17 19:15:02;;;;;;;10.25;1.87;;;;;;;20.81;47.70;101086.12;2858342;81;20990;-89
2022/07/17 19:19:04;;;;;;;5.58;2.22;;;;;;;20.62;47.87;101102.22;2873545;80;21002;-94
2022/07/17 19:23:07;;;;;;;14.18;2.25;;;;;;;20.44;48.08;101105.09;2820555;82;21043;-89
2022/07/17 19:27:08;;;;;;;19.92;4.65;;;;;;;20.26;48.45;101108.34;2838055;82;20994;-88
2022/07/17 19:31:12;;;;;;;14.13;4.67;;;;;;;19.94;49.60;101113.23;2869450;81;21031;-89
2022/07/17 19:35:13;;;;;;;11.93;3.85;;;;;;;19.68;49.73;101115.02;2875204;81;21008;-90
2022/07/17 19:39:15;;;;;;;11.08;4.03;;;;;;;19.55;50.03;101118.20;2877964;81;20987;-90
2022/07/17 19:43:16;;;;;;;13.15;4.58;;;;;;;19.47;50.37;101115.49;2854263;82;21447;-89
2022/07/17 19:47:19;;;;;;;11.22;4.60;;;;;;;19.42;50.30;101119.16;2853104;81;20974;-89
2022/07/17 19:51:21;;;;;;;24.12;4.90;;;;;;;19.36;50.75;101123.88;2892968;80;20970;-90
2022/07/17 19:55:22;;;;;;;6.67;4.15;;;;;;;19.25;51.08;101131.23;2866571;81;20967;-92
2022/07/17 19:59:24;;;;;;;171.15;37.55;;;;;;;19.15;51.74;101133.72;2890312;81;20971;-92
2022/07/17 20:03:25;;;;;;;46.37;11.33;;;;;;;19.02;51.78;101132.34;2894405;80;21013;-89
2022/07/17 20:07:27;;;;;;;50.50;11.73;;;;;;;18.88;52.21;101136.94;2902745;80;21002;-92
2022/07/17 20:11:29;;;;;;;168.97;34.35;;;;;;;18.72;53.18;101140.39;2907688;80;21053;-90
2022/07/17 20:32:11;;;;;;;17.65;4.55;;;;;;;17.93;54.24;101137.05;2828403;82;21028;-86